createdAt,value
2023-02-14T00:00:12.747Z,25.73
2023-02-14T00:01:46.018Z,25.35
2023-02-14T00:03:18.917Z,23.70
2023-02-14T00:04:53.026Z,27.70
2023-02-14T00:06:24.803Z,23.85
2023-02-14T00:07:57.488Z,24.80
2023-02-14T00:09:30.326Z,23.42
2023-02-14T00:11:03.275Z,24.17
2023-02-14T00:12:36.109Z,25.85
2023-02-14T00:14:26.942Z,24.17
2023-02-14T00:15:59.644Z,27.45
2023-02-14T00:17:32.351Z,27.58
2023-02-14T00:19:04.249Z,24.90
2023-02-14T00:20:38.287Z,25.30
2023-02-14T00:22:10.969Z,24.63
2023-02-14T00:23:43.690Z,27.58
2023-02-14T00:25:16.577Z,24.20
2023-02-14T00:26:50.059Z,24.98
2023-02-14T00:28:22.758Z,23.40
2023-02-14T00:29:58.115Z,25.42
2023-02-14T00:31:30.976Z,24.95
2023-02-14T00:33:03.705Z,26.85
2023-02-14T00:34:37.334Z,25.58
2023-02-14T00:36:12.816Z,24.38
2023-02-14T00:37:47.149Z,26.42
2023-02-14T00:39:19.759Z,25.98
2023-02-14T00:40:52.457Z,25.90
2023-02-14T00:42:25.175Z,24.40
2023-02-14T00:43:57.983Z,23.38
2023-02-14T00:45:30.693Z,26.67
2023-02-14T00:47:03.431Z,23.80
2023-02-14T00:48:36.113Z,23.67
2023-02-14T00:50:09.612Z,22.23
2023-02-14T00:51:42.701Z,26.95
2023-02-14T00:53:15.730Z,26.08
2023-02-14T00:54:48.436Z,26.65
2023-02-14T00:56:22.150Z,22.48
2023-02-14T00:57:54.846Z,26.00
2023-02-14T00:59:27.615Z,24.17
2023-02-14T01:01:00.413Z,27.77
2023-02-14T01:02:33.409Z,26.98
2023-02-14T01:04:06.275Z,25.88
2023-02-14T01:05:39.034Z,24.73
2023-02-14T01:07:13.070Z,28.30
2023-02-14T01:08:45.983Z,30.05
2023-02-14T01:10:18.790Z,25.77
2023-02-14T01:11:51.563Z,28.33
2023-02-14T01:13:23.707Z,26.30
2023-02-14T01:14:56.560Z,23.73
2023-02-14T01:16:32.035Z,27.42
2023-02-14T01:18:04.871Z,24.63
2023-02-14T01:19:38.247Z,24.15
2023-02-14T01:21:15.351Z,25.13
2023-02-14T01:22:49.453Z,27.60
2023-02-14T01:24:22.158Z,26.98
2023-02-14T01:25:53.896Z,27.25
2023-02-14T01:27:26.584Z,27.55
2023-02-14T01:28:59.324Z,28.70
2023-02-14T01:30:31.157Z,27.30
2023-02-14T01:32:03.970Z,26.67
2023-02-14T01:33:36.072Z,30.92
2023-02-14T01:35:09.473Z,27.80
2023-02-14T01:36:42.345Z,32.55
2023-02-14T01:38:15.405Z,29.98
2023-02-14T01:39:48.106Z,30.13
2023-02-14T01:41:20.264Z,31.77
2023-02-14T01:42:52.959Z,30.95
2023-02-14T01:44:59.216Z,34.78
2023-02-14T01:46:33.667Z,33.33
2023-02-14T01:48:06.538Z,33.28
2023-02-14T01:49:44.033Z,33.92
2023-02-14T01:51:19.618Z,32.65
2023-02-14T01:52:56.232Z,32.00
2023-02-14T01:54:31.637Z,33.70
2023-02-14T01:56:08.200Z,32.10
2023-02-14T01:57:44.660Z,36.05
2023-02-14T01:59:21.941Z,40.05
2023-02-14T02:01:00.150Z,37.90
2023-02-14T02:02:33.188Z,38.13
2023-02-14T02:04:10.161Z,34.72
2023-02-14T02:05:48.214Z,38.15
2023-02-14T02:07:25.109Z,38.33
2023-02-14T02:09:06.854Z,39.97
2023-02-14T02:10:40.891Z,40.78
2023-02-14T02:12:14.037Z,38.60
2023-02-14T02:13:46.728Z,37.50
2023-02-14T02:15:18.842Z,40.50
2023-02-14T02:17:11.665Z,41.40
2023-02-14T02:18:57.353Z,37.90
2023-02-14T02:20:56.871Z,37.50
2023-02-14T02:22:58.825Z,39.28
2023-02-14T02:24:41.472Z,42.55
2023-02-14T02:26:50.135Z,40.50
2023-02-14T02:29:03.258Z,40.70
2023-02-14T02:31:33.485Z,39.45
2023-02-14T02:33:41.509Z,41.25
2023-02-14T02:35:36.210Z,39.50
2023-02-14T02:37:24.566Z,41.40
2023-02-14T02:39:11.818Z,40.60
2023-02-14T02:40:49.610Z,45.47
2023-02-14T02:42:35.020Z,39.50
2023-02-14T02:44:16.195Z,47.08
2023-02-14T02:46:15.458Z,42.53
2023-02-14T02:47:58.124Z,46.33
2023-02-14T02:50:00.709Z,44.05
2023-02-14T02:51:57.851Z,48.47
2023-02-14T02:53:40.358Z,45.33
2023-02-14T02:55:17.054Z,41.08
2023-02-14T02:56:53.428Z,40.97
2023-02-14T02:58:30.758Z,39.90
2023-02-14T03:00:06.845Z,36.30
2023-02-14T03:01:42.121Z,37.85
2023-02-14T03:03:33.644Z,36.70
2023-02-14T03:05:06.656Z,35.05
2023-02-14T03:06:40.700Z,35.17
2023-02-14T03:08:13.408Z,33.65
2023-02-14T03:09:53.668Z,34.30
2023-02-14T03:11:27.348Z,31.42
2023-02-14T03:13:31.443Z,33.65
2023-02-14T03:15:12.154Z,28.02
2023-02-14T03:16:57.282Z,30.75
2023-02-14T03:18:51.403Z,32.83
2023-02-14T03:20:30.954Z,33.00
2023-02-14T03:22:09.334Z,34.33
2023-02-14T03:23:50.376Z,32.35
2023-02-14T03:25:41.596Z,38.30
2023-02-14T03:27:19.454Z,41.65
2023-02-14T03:28:58.675Z,38.00
2023-02-14T03:30:40.258Z,33.72
2023-02-14T03:32:20.252Z,35.13
2023-02-14T03:34:00.451Z,34.40
2023-02-14T03:35:38.033Z,31.58
2023-02-14T03:37:16.187Z,30.10
2023-02-14T03:38:52.492Z,33.15
2023-02-14T03:40:28.765Z,30.08
2023-02-14T03:42:06.390Z,64.53
2023-02-14T03:43:45.098Z,41.75
2023-02-14T03:45:22.116Z,39.33
2023-02-14T03:46:59.540Z,34.67
2023-02-14T03:48:34.537Z,35.67
2023-02-14T03:50:10.963Z,36.22
2023-02-14T03:51:47.612Z,32.53
2023-02-14T03:53:26.414Z,39.08
2023-02-14T03:55:01.468Z,34.25
2023-02-14T03:56:39.691Z,35.40
2023-02-14T03:58:17.414Z,34.60
2023-02-14T03:59:49.857Z,33.00
2023-02-14T04:01:26.747Z,39.50
2023-02-14T04:03:04.814Z,37.97
2023-02-14T04:04:41.470Z,39.08
2023-02-14T04:06:14.479Z,36.10
2023-02-14T04:07:48.960Z,35.03
2023-02-14T04:09:23.005Z,36.90
2023-02-14T04:10:59.315Z,34.20
2023-02-14T04:12:37.690Z,34.47
2023-02-14T04:14:10.945Z,34.05
2023-02-14T04:15:43.710Z,35.97
2023-02-14T04:17:34.128Z,32.90
2023-02-14T04:19:24.055Z,35.97
2023-02-14T04:20:56.854Z,62.22
2023-02-14T04:22:29.575Z,121.65
2023-02-14T04:24:02.252Z,72.25
2023-02-14T04:25:36.277Z,132.68
2023-02-14T04:27:11.754Z,87.50
2023-02-14T04:28:44.455Z,261.63
2023-02-14T04:30:20.685Z,147.88
2023-02-14T04:31:53.523Z,160.38
2023-02-14T04:33:26.322Z,94.45
2023-02-14T04:34:59.006Z,88.60
2023-02-14T04:36:30.752Z,195.68
2023-02-14T04:38:04.196Z,45.33
2023-02-14T04:39:37.635Z,42.03
2023-02-14T04:41:11.655Z,43.90
2023-02-14T04:42:44.410Z,108.57
2023-02-14T04:44:17.121Z,54.63
2023-02-14T04:45:49.814Z,48.58
2023-02-14T04:47:21.577Z,64.22
2023-02-14T04:48:54.243Z,109.97
2023-02-14T04:50:26.972Z,122.00
2023-02-14T04:51:59.967Z,143.80
2023-02-14T04:53:32.634Z,49.50
2023-02-14T04:55:06.447Z,114.93
2023-02-14T04:56:39.617Z,30.45
2023-02-14T04:58:12.312Z,77.13
2023-02-14T04:59:45.061Z,51.38
2023-02-14T05:01:16.861Z,93.22
2023-02-14T05:02:49.598Z,182.32
2023-02-14T05:04:22.536Z,33.00
2023-02-14T05:05:55.230Z,41.97
2023-02-14T05:07:27.924Z,39.92
2023-02-14T05:09:00.753Z,123.72
2023-02-14T05:10:33.495Z,143.55
2023-02-14T05:12:07.946Z,129.75
2023-02-14T05:13:40.671Z,128.65
2023-02-14T05:15:13.403Z,124.22
2023-02-14T05:16:46.117Z,112.03
2023-02-14T05:18:18.875Z,105.22
2023-02-14T05:19:51.613Z,87.32
2023-02-14T05:21:24.330Z,83.10
2023-02-14T05:22:57.002Z,86.97
2023-02-14T05:24:29.702Z,115.38
2023-02-14T05:26:02.418Z,115.32
2023-02-14T05:27:36.468Z,130.75
2023-02-14T05:29:09.365Z,94.70
2023-02-14T05:30:42.227Z,79.60
2023-02-14T05:32:15.110Z,101.38
2023-02-14T05:33:47.867Z,92.90
2023-02-14T05:35:20.571Z,106.32
2023-02-14T05:36:54.821Z,87.72
2023-02-14T05:38:27.860Z,131.07
2023-02-14T05:40:00.593Z,123.35
2023-02-14T05:41:33.463Z,76.90
2023-02-14T05:43:07.865Z,93.10
2023-02-14T05:44:40.610Z,138.10
2023-02-14T05:46:13.447Z,69.70
2023-02-14T05:47:46.180Z,87.07
2023-02-14T05:49:18.878Z,87.13
2023-02-14T05:50:51.575Z,88.57
2023-02-14T05:52:24.510Z,101.50
2023-02-14T05:53:59.845Z,93.47
2023-02-14T05:55:32.611Z,118.90
2023-02-14T05:57:05.348Z,177.30
2023-02-14T05:58:39.508Z,202.02
2023-02-14T06:00:13.521Z,141.90
2023-02-14T06:01:46.248Z,147.57
2023-02-14T06:03:18.981Z,207.82
2023-02-14T06:04:51.796Z,192.75
2023-02-14T06:06:24.499Z,212.75
2023-02-14T06:07:57.204Z,202.25
2023-02-14T06:09:30.081Z,260.38
2023-02-14T06:11:02.907Z,277.33
2023-02-14T06:12:35.634Z,165.68
2023-02-14T06:14:09.678Z,163.90
2023-02-14T06:15:42.498Z,171.45
2023-02-14T06:17:15.231Z,275.00
2023-02-14T06:18:47.951Z,239.10
2023-02-14T06:20:21.213Z,216.35
2023-02-14T06:21:53.935Z,196.10
2023-02-14T06:23:26.629Z,154.48
2023-02-14T06:24:59.456Z,150.77
2023-02-14T06:26:33.197Z,171.80
2023-02-14T06:28:06.554Z,142.55
2023-02-14T06:29:40.660Z,67.55
2023-02-14T06:31:17.212Z,132.02
2023-02-14T06:32:49.938Z,133.40
2023-02-14T06:34:22.613Z,149.27
2023-02-14T06:35:55.673Z,131.65
2023-02-14T06:37:28.361Z,150.27
2023-02-14T06:39:01.180Z,123.88
2023-02-14T06:40:34.835Z,139.10
2023-02-14T06:42:07.854Z,164.93
2023-02-14T06:43:40.615Z,137.75
2023-02-14T06:45:14.752Z,126.38
2023-02-14T06:46:47.427Z,157.52
2023-02-14T06:48:20.115Z,189.45
2023-02-14T06:49:52.820Z,171.63
2023-02-14T06:51:25.516Z,135.90
2023-02-14T06:52:58.217Z,155.00
2023-02-14T06:54:30.973Z,146.45
2023-02-14T06:56:03.924Z,143.18
2023-02-14T06:57:36.661Z,200.40
2023-02-14T06:59:09.354Z,125.38
2023-02-14T07:00:43.506Z,113.97
2023-02-14T07:02:16.373Z,116.65
2023-02-14T07:03:49.098Z,132.35
2023-02-14T07:05:21.882Z,107.47
2023-02-14T07:06:54.608Z,199.05
2023-02-14T07:08:27.494Z,131.70
2023-02-14T07:10:00.180Z,134.07
2023-02-14T07:11:32.995Z,78.65
2023-02-14T07:13:05.780Z,113.70
2023-02-14T07:14:38.463Z,62.17
2023-02-14T07:16:12.546Z,126.85
2023-02-14T07:17:45.605Z,164.82
2023-02-14T07:19:18.316Z,83.53
2023-02-14T07:20:51.048Z,131.10
2023-02-14T07:22:23.727Z,132.05
2023-02-14T07:23:56.441Z,116.47
2023-02-14T07:25:29.136Z,111.03
2023-02-14T07:27:01.828Z,104.70
2023-02-14T07:28:34.551Z,104.90
2023-02-14T07:30:09.222Z,116.13
2023-02-14T07:31:43.490Z,111.32
2023-02-14T07:33:16.387Z,101.47
2023-02-14T07:34:49.087Z,101.70
2023-02-14T07:36:21.792Z,72.57
2023-02-14T07:37:54.559Z,115.88
2023-02-14T07:39:27.300Z,113.00
2023-02-14T07:41:00.314Z,134.02
2023-02-14T07:42:33.217Z,102.53
2023-02-14T07:44:06.109Z,108.60
2023-02-14T07:45:38.814Z,112.82
2023-02-14T07:47:12.948Z,141.75
2023-02-14T07:48:45.828Z,111.90
2023-02-14T07:50:18.974Z,99.30
2023-02-14T07:51:51.716Z,75.65
2023-02-14T07:53:24.681Z,75.57
2023-02-14T07:54:57.413Z,81.75
2023-02-14T07:56:30.119Z,86.72
2023-02-14T07:58:03.391Z,84.80
2023-02-14T07:59:36.371Z,69.93
2023-02-14T08:01:09.110Z,73.43
2023-02-14T08:02:43.173Z,70.13
2023-02-14T08:04:15.896Z,80.57
2023-02-14T08:05:56.864Z,83.43
2023-02-14T08:07:29.646Z,76.97
2023-02-14T08:09:02.731Z,91.18
2023-02-14T08:10:35.486Z,68.93
2023-02-14T08:12:25.702Z,64.07
2023-02-14T08:13:58.384Z,76.50
2023-02-14T08:15:51.021Z,72.57
2023-02-14T08:17:23.748Z,65.53
2023-02-14T08:18:58.038Z,70.40
2023-02-14T08:20:30.846Z,67.38
2023-02-14T08:22:03.707Z,65.90
2023-02-14T08:23:36.890Z,106.63
2023-02-14T08:25:09.753Z,72.20
2023-02-14T08:26:42.484Z,76.30
2023-02-14T08:28:15.189Z,80.07
2023-02-14T08:29:47.907Z,81.70
2023-02-14T08:31:34.496Z,75.72
2023-02-14T08:33:08.493Z,71.35
2023-02-14T08:34:42.571Z,73.75
2023-02-14T08:36:17.667Z,67.47
2023-02-14T08:37:50.620Z,62.33
2023-02-14T08:39:23.801Z,61.45
2023-02-14T08:41:01.151Z,126.45
2023-02-14T08:42:34.012Z,88.72
2023-02-14T08:44:06.963Z,74.32
2023-02-14T08:45:40.240Z,88.70
2023-02-14T08:47:13.026Z,66.30
2023-02-14T08:48:45.986Z,94.13
2023-02-14T08:50:20.501Z,71.22
2023-02-14T08:51:54.506Z,80.45
2023-02-14T08:53:27.184Z,67.57
2023-02-14T08:55:00.032Z,90.45
2023-02-14T08:56:33.118Z,85.10
2023-02-14T08:58:06.863Z,84.18
2023-02-14T08:59:39.551Z,65.07
2023-02-14T09:01:14.269Z,79.15
2023-02-14T09:02:46.955Z,71.10
2023-02-14T09:04:19.950Z,184.60
2023-02-14T09:05:54.025Z,69.53
2023-02-14T09:07:27.059Z,56.47
2023-02-14T09:09:01.583Z,61.03
2023-02-14T09:10:35.214Z,80.05
2023-02-14T09:12:09.649Z,55.65
2023-02-14T09:13:43.789Z,57.72
2023-02-14T09:15:16.493Z,62.25
2023-02-14T09:16:49.315Z,65.22
2023-02-14T09:18:22.082Z,56.17
2023-02-14T09:19:54.826Z,64.85
2023-02-14T09:21:29.622Z,59.00
2023-02-14T09:23:02.582Z,66.15
2023-02-14T09:24:36.738Z,71.00
2023-02-14T09:26:11.405Z,64.55
2023-02-14T09:27:44.555Z,74.75
2023-02-14T09:29:17.886Z,128.23
2023-02-14T09:30:52.292Z,202.88
2023-02-14T09:32:27.197Z,108.57
2023-02-14T09:34:00.005Z,70.90
2023-02-14T09:35:32.316Z,88.13
2023-02-14T09:37:24.039Z,125.97
2023-02-14T09:38:56.759Z,77.10
2023-02-14T09:40:29.543Z,62.53
2023-02-14T09:42:26.423Z,69.25
2023-02-14T09:44:01.596Z,67.72
2023-02-14T09:45:34.987Z,75.10
2023-02-14T09:47:13.569Z,81.85
2023-02-14T09:48:49.288Z,81.90
2023-02-14T09:50:26.447Z,64.80
2023-02-14T09:52:00.583Z,65.63
2023-02-14T09:53:38.667Z,112.35
2023-02-14T09:55:16.213Z,72.78
2023-02-14T09:56:57.569Z,63.05
2023-02-14T09:58:34.513Z,79.25
2023-02-14T10:00:19.032Z,61.67
2023-02-14T10:01:57.631Z,61.05
2023-02-14T10:03:46.562Z,63.78
2023-02-14T10:05:23.549Z,121.63
2023-02-14T10:07:02.164Z,96.20
2023-02-14T10:08:48.261Z,105.75
2023-02-14T10:10:26.939Z,88.78
2023-02-14T10:12:01.619Z,83.28
2023-02-14T10:13:40.932Z,71.88
2023-02-14T10:15:18.831Z,69.40
2023-02-14T10:16:56.227Z,69.57
2023-02-14T10:18:36.517Z,61.55
2023-02-14T10:20:21.586Z,58.70
2023-02-14T10:21:57.584Z,63.08
2023-02-14T10:23:34.302Z,63.08
2023-02-14T10:25:17.194Z,63.17
2023-02-14T10:26:51.488Z,73.43
2023-02-14T10:28:32.331Z,62.65
2023-02-14T10:30:14.973Z,56.35
2023-02-14T10:31:55.867Z,67.50
2023-02-14T10:33:33.163Z,67.25
2023-02-14T10:35:12.756Z,69.30
2023-02-14T10:36:57.064Z,62.67
2023-02-14T10:38:38.945Z,61.45
2023-02-14T10:40:32.322Z,61.00
2023-02-14T10:42:14.682Z,62.28
2023-02-14T10:44:00.579Z,68.20
2023-02-14T10:45:39.987Z,68.45
2023-02-14T10:47:26.638Z,62.05
2023-02-14T10:49:12.006Z,62.75
2023-02-14T10:50:52.162Z,63.63
2023-02-14T10:52:29.772Z,57.45
2023-02-14T10:54:16.882Z,61.00
2023-02-14T10:55:55.251Z,66.63
2023-02-14T10:57:32.603Z,57.65
2023-02-14T10:59:19.284Z,70.20
2023-02-14T11:00:59.771Z,67.13
2023-02-14T11:02:36.351Z,71.68
2023-02-14T11:04:12.618Z,63.53
2023-02-14T11:05:48.248Z,70.75
2023-02-14T11:07:22.871Z,66.60
2023-02-14T11:08:57.278Z,57.35
2023-02-14T11:10:33.757Z,53.88
2023-02-14T11:12:08.857Z,61.15
2023-02-14T11:13:42.101Z,55.45
2023-02-14T11:15:27.507Z,60.60
2023-02-14T11:17:01.518Z,55.92
2023-02-14T11:18:35.933Z,71.00
2023-02-14T11:20:25.011Z,56.60
2023-02-14T11:21:59.797Z,60.90
2023-02-14T11:23:37.713Z,60.97
2023-02-14T11:25:20.574Z,53.17
2023-02-14T11:26:55.556Z,69.68
2023-02-14T11:28:29.736Z,58.35
2023-02-14T11:30:02.522Z,64.60
2023-02-14T11:31:37.889Z,49.05
2023-02-14T11:33:13.736Z,56.60
2023-02-14T11:34:48.636Z,52.95
2023-02-14T11:36:21.983Z,55.10
2023-02-14T11:37:56.264Z,52.35
2023-02-14T11:39:31.956Z,60.30
2023-02-14T11:41:07.113Z,63.88
2023-02-14T11:42:43.529Z,60.03
2023-02-14T11:44:22.581Z,58.13
2023-02-14T11:46:07.818Z,54.75
2023-02-14T11:47:42.783Z,57.72
2023-02-14T11:49:29.551Z,68.45
2023-02-14T11:51:06.067Z,69.18
2023-02-14T11:52:49.072Z,62.92
2023-02-14T11:54:30.604Z,61.63
2023-02-14T11:56:03.478Z,59.92
2023-02-14T11:57:39.708Z,70.55
2023-02-14T11:59:15.590Z,87.72
2023-02-14T12:00:54.829Z,81.45
2023-02-14T12:02:32.455Z,60.75
2023-02-14T12:04:08.959Z,70.65
2023-02-14T12:05:48.563Z,136.27
2023-02-14T12:07:25.717Z,76.63
2023-02-14T12:09:12.614Z,65.50
2023-02-14T12:10:45.349Z,86.78
2023-02-14T12:12:27.504Z,72.38
2023-02-14T12:14:00.311Z,65.47
2023-02-14T12:15:36.725Z,78.30
2023-02-14T12:17:25.709Z,61.03
2023-02-14T12:19:03.535Z,76.35
2023-02-14T12:20:41.815Z,96.80
2023-02-14T12:22:19.792Z,93.32
2023-02-14T12:24:01.273Z,80.00
2023-02-14T12:25:43.270Z,70.40
2023-02-14T12:27:21.233Z,67.85
2023-02-14T12:29:01.385Z,67.47
2023-02-14T12:30:35.764Z,71.13
2023-02-14T12:32:20.775Z,85.53
2023-02-14T12:33:53.787Z,67.95
2023-02-14T12:35:42.354Z,72.50
2023-02-14T12:37:23.311Z,60.50
2023-02-14T12:39:08.406Z,83.75
2023-02-14T12:40:52.897Z,67.95
2023-02-14T12:42:40.624Z,75.95
2023-02-14T12:44:22.925Z,60.53
2023-02-14T12:46:12.494Z,61.10
2023-02-14T12:47:56.963Z,67.30
2023-02-14T12:49:52.476Z,60.53
2023-02-14T12:51:31.046Z,66.82
2023-02-14T12:53:21.805Z,66.05
2023-02-14T12:55:08.971Z,67.93
2023-02-14T12:56:51.442Z,58.60
2023-02-14T12:58:38.016Z,65.25
2023-02-14T13:00:24.100Z,66.82
2023-02-14T13:02:36.655Z,53.97
2023-02-14T13:04:45.286Z,69.38
2023-02-14T13:06:28.779Z,61.30
2023-02-14T13:08:17.487Z,51.88
2023-02-14T13:09:59.320Z,58.55
2023-02-14T13:11:40.561Z,51.00
2023-02-14T13:13:19.599Z,49.05
2023-02-14T13:15:00.201Z,53.67
2023-02-14T13:16:40.310Z,48.50
2023-02-14T13:18:19.201Z,51.42
2023-02-14T13:20:01.730Z,53.63
2023-02-14T13:21:38.700Z,52.42
2023-02-14T13:23:15.099Z,50.63
2023-02-14T13:24:51.683Z,53.15
2023-02-14T13:26:30.297Z,48.67
2023-02-14T13:28:05.490Z,53.75
2023-02-14T13:29:44.954Z,52.30
2023-02-14T13:31:19.176Z,52.05
2023-02-14T13:32:54.277Z,52.60
2023-02-14T13:34:29.792Z,58.75
2023-02-14T13:36:07.668Z,56.88
2023-02-14T13:37:47.580Z,49.97
2023-02-14T13:39:28.624Z,48.97
2023-02-14T13:41:02.834Z,60.50
2023-02-14T13:42:53.402Z,53.92
2023-02-14T13:44:47.503Z,55.08
2023-02-14T13:46:23.128Z,50.47
2023-02-14T13:48:05.383Z,54.47
2023-02-14T13:49:41.333Z,48.25
2023-02-14T13:51:14.053Z,50.05
2023-02-14T13:52:49.588Z,50.30
2023-02-14T13:54:34.240Z,52.83
2023-02-14T13:56:32.422Z,52.03
2023-02-14T13:58:08.172Z,52.95
2023-02-14T13:59:40.891Z,47.92
2023-02-14T14:01:31.585Z,53.35
2023-02-14T14:03:05.390Z,49.88
2023-02-14T14:04:39.119Z,53.78
2023-02-14T14:06:12.508Z,50.00
2023-02-14T14:07:45.223Z,62.38
2023-02-14T14:09:53.736Z,54.03
2023-02-14T14:11:50.820Z,56.30
2023-02-14T14:13:57.577Z,53.95
2023-02-14T14:15:30.323Z,50.10
2023-02-14T14:17:05.789Z,50.22
2023-02-14T14:18:43.598Z,49.60
2023-02-14T14:20:44.731Z,55.00
2023-02-14T14:22:17.929Z,53.00
2023-02-14T14:24:06.817Z,50.70
2023-02-14T14:25:43.534Z,52.42
2023-02-14T14:27:18.711Z,51.58
2023-02-14T14:28:51.429Z,52.85
2023-02-14T14:30:29.174Z,68.95
2023-02-14T14:32:10.281Z,58.38
2023-02-14T14:33:43.055Z,69.97
2023-02-14T14:35:20.564Z,57.17
2023-02-14T14:37:03.831Z,55.33
2023-02-14T14:38:47.481Z,56.28
2023-02-14T14:40:26.366Z,54.55
2023-02-14T14:42:08.647Z,59.92
2023-02-14T14:43:42.430Z,51.95
2023-02-14T14:45:22.552Z,52.65
2023-02-14T14:47:00.413Z,47.25
2023-02-14T14:48:37.932Z,50.70
2023-02-14T14:50:16.383Z,77.82
2023-02-14T14:51:49.641Z,59.63
2023-02-14T14:53:26.001Z,53.42
2023-02-14T14:55:00.198Z,77.45
2023-02-14T14:56:35.167Z,67.15
2023-02-14T14:58:37.274Z,64.63
2023-02-14T15:00:27.111Z,57.88
2023-02-14T15:01:59.870Z,52.22
2023-02-14T15:03:33.176Z,56.55
2023-02-14T15:05:18.238Z,55.80
2023-02-14T15:06:51.682Z,54.00
2023-02-14T15:08:33.666Z,53.65
2023-02-14T15:10:22.522Z,58.70
2023-02-14T15:12:12.796Z,63.22
2023-02-14T15:13:53.762Z,59.33
2023-02-14T15:15:26.687Z,66.55
2023-02-14T15:17:01.679Z,61.50
2023-02-14T15:18:34.569Z,57.92
2023-02-14T15:20:11.238Z,56.10
2023-02-14T15:21:44.873Z,65.70
2023-02-14T15:23:19.975Z,61.63
2023-02-14T15:24:53.372Z,60.20
2023-02-14T15:26:30.119Z,59.38
2023-02-14T15:28:03.648Z,53.33
2023-02-14T15:29:37.680Z,48.05
2023-02-14T15:31:11.209Z,47.47
2023-02-14T15:32:44.126Z,57.17
2023-02-14T15:34:17.115Z,61.55
2023-02-14T15:35:50.145Z,49.70
2023-02-14T15:37:25.201Z,54.90
2023-02-14T15:38:59.883Z,53.00
2023-02-14T15:40:34.923Z,63.72
2023-02-14T15:42:22.510Z,63.10
2023-02-14T15:43:57.517Z,63.75
2023-02-14T15:45:32.441Z,61.40
2023-02-14T15:47:06.459Z,56.20
2023-02-14T15:48:41.820Z,66.57
2023-02-14T15:50:17.677Z,58.92
2023-02-14T15:51:51.918Z,59.30
2023-02-14T15:53:37.392Z,57.60
2023-02-14T15:55:11.758Z,59.17
2023-02-14T15:56:48.836Z,56.53
2023-02-14T15:58:24.662Z,55.25
2023-02-14T15:59:57.366Z,56.90
2023-02-14T16:01:33.590Z,57.33
2023-02-14T16:03:09.037Z,60.30
2023-02-14T16:04:41.761Z,55.45
2023-02-14T16:06:31.899Z,57.45
2023-02-14T16:08:06.732Z,54.15
2023-02-14T16:09:39.441Z,63.83
2023-02-14T16:11:15.736Z,56.35
2023-02-14T16:12:57.526Z,51.58
2023-02-14T16:14:32.666Z,74.82
2023-02-14T16:16:07.484Z,351.63
2023-02-14T16:17:43.850Z,97.72
2023-02-14T16:19:32.743Z,169.73
2023-02-14T16:21:17.716Z,51.80
2023-02-14T16:22:50.479Z,50.63
2023-02-14T16:24:23.180Z,50.33
2023-02-14T16:25:57.380Z,118.38
2023-02-14T16:27:31.523Z,67.63
2023-02-14T16:29:04.809Z,49.70
2023-02-14T16:30:38.854Z,50.05
2023-02-14T16:32:17.046Z,49.65
2023-02-14T16:33:51.610Z,49.78
2023-02-14T16:35:24.583Z,55.55
2023-02-14T16:36:57.318Z,66.93
2023-02-14T16:38:30.056Z,60.17
2023-02-14T16:40:03.081Z,54.97
2023-02-14T16:41:36.089Z,53.13
2023-02-14T16:43:13.646Z,54.15
2023-02-14T16:44:47.113Z,55.05
2023-02-14T16:46:21.929Z,89.97
2023-02-14T16:47:54.656Z,110.97
2023-02-14T16:49:28.730Z,250.45
2023-02-14T16:51:01.721Z,223.88
2023-02-14T16:52:34.768Z,400.85
2023-02-14T16:54:09.541Z,204.35
2023-02-14T16:55:42.709Z,129.98
2023-02-14T16:57:25.854Z,80.97
2023-02-14T16:59:00.056Z,65.07
2023-02-14T17:00:32.778Z,64.35
2023-02-14T17:02:05.496Z,57.78
2023-02-14T17:03:39.869Z,52.72
2023-02-14T17:05:14.010Z,53.38
2023-02-14T17:06:50.178Z,86.15
2023-02-14T17:08:22.880Z,79.60
2023-02-14T17:09:59.492Z,57.92
2023-02-14T17:11:33.570Z,56.90
2023-02-14T17:13:07.272Z,102.57
2023-02-14T17:14:42.847Z,64.45
2023-02-14T17:16:16.825Z,54.38
2023-02-14T17:17:51.640Z,53.33
2023-02-14T17:19:24.354Z,57.38
2023-02-14T17:21:00.363Z,51.75
2023-02-14T17:22:34.381Z,51.70
2023-02-14T17:24:07.513Z,53.60
2023-02-14T17:25:40.532Z,51.15
2023-02-14T17:27:13.264Z,50.10
2023-02-14T17:28:47.227Z,53.58
2023-02-14T17:30:20.213Z,55.63
2023-02-14T17:31:53.451Z,56.42
2023-02-14T17:33:26.562Z,56.22
2023-02-14T17:35:00.914Z,57.17
2023-02-14T17:36:34.983Z,53.35
2023-02-14T17:38:07.670Z,53.30
2023-02-14T17:39:40.411Z,50.25
2023-02-14T17:41:14.786Z,51.42
2023-02-14T17:42:47.511Z,52.75
2023-02-14T17:44:20.843Z,52.65
2023-02-14T17:45:53.579Z,52.38
2023-02-14T17:47:26.305Z,51.65
2023-02-14T17:49:02.388Z,52.95
2023-02-14T17:50:35.739Z,50.80
2023-02-14T17:52:09.791Z,51.83
2023-02-14T17:53:43.373Z,52.10
2023-02-14T17:55:16.720Z,53.58
2023-02-14T17:56:49.418Z,59.45
2023-02-14T17:58:22.194Z,54.92
2023-02-14T17:59:54.894Z,60.90
2023-02-14T18:01:31.286Z,56.42
2023-02-14T18:03:04.205Z,51.72
2023-02-14T18:04:37.274Z,51.17
2023-02-14T18:06:11.379Z,55.47
2023-02-14T18:07:45.516Z,51.38
2023-02-14T18:09:19.223Z,53.15
2023-02-14T18:10:51.906Z,51.38
2023-02-14T18:12:25.237Z,50.70
2023-02-14T18:13:59.494Z,52.13
2023-02-14T18:15:32.190Z,52.75
2023-02-14T18:17:05.794Z,57.67
2023-02-14T18:18:39.450Z,45.75
2023-02-14T18:20:12.673Z,49.83
2023-02-14T18:21:46.262Z,53.55
2023-02-14T18:23:20.282Z,51.63
2023-02-14T18:24:52.964Z,53.17
2023-02-14T18:26:26.769Z,53.65
2023-02-14T18:28:00.032Z,54.17
2023-02-14T18:29:32.900Z,52.42
2023-02-14T18:31:06.595Z,57.00
2023-02-14T18:32:39.343Z,55.30
2023-02-14T18:34:12.200Z,58.58
2023-02-14T18:35:44.998Z,53.65
2023-02-14T18:37:18.133Z,70.15
2023-02-14T18:38:52.259Z,77.97
2023-02-14T18:40:24.991Z,71.32
2023-02-14T18:41:59.816Z,57.33
2023-02-14T18:43:32.632Z,58.35
2023-02-14T18:45:05.826Z,63.83
2023-02-14T18:46:38.511Z,60.90
2023-02-14T18:48:11.203Z,60.97
2023-02-14T18:49:43.882Z,58.78
2023-02-14T18:51:18.642Z,60.65
2023-02-14T18:52:51.322Z,60.08
2023-02-14T18:54:25.603Z,61.28
2023-02-14T18:55:58.299Z,65.43
2023-02-14T18:57:31.376Z,78.93
2023-02-14T18:59:06.791Z,62.58
2023-02-14T19:00:39.828Z,60.55
2023-02-14T19:02:13.879Z,57.88
2023-02-14T19:03:46.726Z,58.72
2023-02-14T19:05:19.561Z,64.70
2023-02-14T19:06:52.267Z,59.70
2023-02-14T19:08:24.966Z,64.38
2023-02-14T19:09:59.053Z,66.85
2023-02-14T19:11:33.744Z,67.20
2023-02-14T19:13:07.147Z,112.90
2023-02-14T19:14:39.839Z,160.07
2023-02-14T19:16:13.104Z,79.18
2023-02-14T19:17:45.826Z,67.65
2023-02-14T19:19:18.906Z,62.65
2023-02-14T19:20:51.987Z,62.88
2023-02-14T19:22:24.733Z,64.43
2023-02-14T19:23:58.518Z,64.75
2023-02-14T19:25:34.436Z,65.47
2023-02-14T19:27:07.151Z,92.25
2023-02-14T19:28:40.132Z,82.22
2023-02-14T19:30:13.322Z,96.30
2023-02-14T19:31:48.210Z,83.30
2023-02-14T19:33:21.134Z,74.13
2023-02-14T19:34:53.900Z,70.45
2023-02-14T19:36:26.566Z,69.78
2023-02-14T19:38:03.295Z,72.80
2023-02-14T19:39:35.997Z,86.03
2023-02-14T19:41:16.556Z,73.22
2023-02-14T19:42:49.259Z,70.88
2023-02-14T19:44:25.090Z,72.68
2023-02-14T19:45:58.052Z,67.43
2023-02-14T19:47:45.912Z,68.15
2023-02-14T19:49:21.058Z,65.50
2023-02-14T19:50:54.958Z,65.68
2023-02-14T19:52:28.024Z,67.68
2023-02-14T19:54:03.020Z,73.95
2023-02-14T19:55:35.746Z,66.53
2023-02-14T19:57:13.293Z,72.78
2023-02-14T19:58:46.013Z,73.90
2023-02-14T20:00:20.852Z,73.80
2023-02-14T20:01:54.544Z,84.22
2023-02-14T20:03:27.321Z,73.72
2023-02-14T20:05:04.137Z,83.78
2023-02-14T20:06:37.869Z,89.10
2023-02-14T20:08:10.568Z,74.32
2023-02-14T20:09:43.258Z,74.03
2023-02-14T20:11:32.581Z,69.10
2023-02-14T20:13:06.629Z,147.57
2023-02-14T20:14:50.868Z,64.53
2023-02-14T20:16:25.139Z,72.30
2023-02-14T20:17:57.999Z,71.70
2023-02-14T20:19:34.508Z,67.95
2023-02-14T20:21:07.468Z,70.50
2023-02-14T20:22:40.411Z,63.55
2023-02-14T20:24:16.314Z,123.97
2023-02-14T20:25:49.262Z,180.57
2023-02-14T20:27:24.549Z,145.35
2023-02-14T20:28:59.486Z,121.80
2023-02-14T20:30:32.215Z,154.65
2023-02-14T20:32:05.868Z,127.28
2023-02-14T20:33:38.906Z,145.10
2023-02-14T20:35:11.609Z,83.60
2023-02-14T20:36:45.059Z,99.65